sensor_id;sensor_type;location;lat;lon;timestamp;pressure;altitude;pressure_sealevel;temperature;humidity
12973;BME280;6551;51.056;9.466;2022-10-23T00:01:32;97711.69;;;13.01;87.33
12973;BME280;6551;51.056;9.466;2022-10-23T00:04:05;97710.88;;;13.00;87.55
12973;BME280;6551;51.056;9.466;2022-10-23T00:06:33;97711.69;;;13.01;87.36
12973;BME280;6551;51.056;9.466;2022-10-23T00:09:00;97711.13;;;12.99;87.81
12973;BME280;6551;51.056;9.466;2022-10-23T00:11:28;97705.75;;;12.99;87.65
12973;BME280;6551;51.056;9.466;2022-10-23T00:14:00;97706.44;;;12.94;87.86
12973;BME280;6551;51.056;9.466;2022-10-23T00:16:27;97711.47;;;12.90;87.72
12973;BME280;6551;51.056;9.466;2022-10-23T00:18:52;97704.13;;;12.98;87.60
12973;BME280;6551;51.056;9.466;2022-10-23T00:21:19;97706.34;;;13.01;87.66
12973;BME280;6551;51.056;9.466;2022-10-23T00:23:45;97699.34;;;13.00;87.85
12973;BME280;6551;51.056;9.466;2022-10-23T00:26:12;97702.63;;;13.02;88.16
12973;BME280;6551;51.056;9.466;2022-10-23T00:28:49;97705.19;;;12.97;87.89
12973;BME280;6551;51.056;9.466;2022-10-23T00:31:16;97696.47;;;12.89;87.16
12973;BME280;6551;51.056;9.466;2022-10-23T00:33:43;97695.78;;;12.82;86.98
12973;BME280;6551;51.056;9.466;2022-10-23T00:36:11;97696.69;;;12.76;86.87
12973;BME280;6551;51.056;9.466;2022-10-23T00:38:38;97696.44;;;12.78;86.68
12973;BME280;6551;51.056;9.466;2022-10-23T00:41:08;97697.84;;;12.69;86.82
12973;BME280;6551;51.056;9.466;2022-10-23T00:43:52;97700.75;;;12.67;87.41
12973;BME280;6551;51.056;9.466;2022-10-23T00:46:18;97697.72;;;12.64;87.52
12973;BME280;6551;51.056;9.466;2022-10-23T00:48:44;97699.00;;;12.61;87.48
12973;BME280;6551;51.056;9.466;2022-10-23T00:51:09;97692.50;;;12.57;87.85
12973;BME280;6551;51.056;9.466;2022-10-23T00:53:36;97698.19;;;12.61;87.71
12973;BME280;6551;51.056;9.466;2022-10-23T00:56:02;97690.28;;;12.54;87.95
12973;BME280;6551;51.056;9.466;2022-10-23T00:58:27;97697.13;;;12.50;87.90
12973;BME280;6551;51.056;9.466;2022-10-23T01:00:55;97688.16;;;12.45;87.50
12973;BME280;6551;51.056;9.466;2022-10-23T01:03:25;97689.00;;;12.45;87.71
12973;BME280;6551;51.056;9.466;2022-10-23T01:06:25;97680.16;;;12.45;87.67
12973;BME280;6551;51.056;9.466;2022-10-23T01:09:15;97677.81;;;12.37;87.60
12973;BME280;6551;51.056;9.466;2022-10-23T01:14:55;97688.47;;;12.25;87.78
12973;BME280;6551;51.056;9.466;2022-10-23T01:17:35;97685.31;;;12.16;87.42
12973;BME280;6551;51.056;9.466;2022-10-23T01:25:35;97682.13;;;11.96;86.99
12973;BME280;6551;51.056;9.466;2022-10-23T01:28:08;97687.31;;;11.91;87.15
12973;BME280;6551;51.056;9.466;2022-10-23T01:30:42;97687.56;;;11.90;87.45
12973;BME280;6551;51.056;9.466;2022-10-23T01:33:14;97679.31;;;11.91;87.91
12973;BME280;6551;51.056;9.466;2022-10-23T01:36:03;97678.38;;;11.86;87.37
12973;BME280;6551;51.056;9.466;2022-10-23T01:38:57;97675.34;;;11.82;87.54
12973;BME280;6551;51.056;9.466;2022-10-23T01:41:48;97672.44;;;11.84;87.81
12973;BME280;6551;51.056;9.466;2022-10-23T01:44:35;97669.19;;;11.82;87.71
12973;BME280;6551;51.056;9.466;2022-10-23T01:47:05;97672.56;;;11.77;87.59
12973;BME280;6551;51.056;9.466;2022-10-23T01:49:36;97663.13;;;11.74;87.30
12973;BME280;6551;51.056;9.466;2022-10-23T01:52:07;97669.34;;;11.68;87.14
12973;BME280;6551;51.056;9.466;2022-10-23T01:54:39;97661.81;;;11.65;86.67
12973;BME280;6551;51.056;9.466;2022-10-23T01:57:10;97661.81;;;11.65;86.88
12973;BME280;6551;51.056;9.466;2022-10-23T01:59:43;97666.91;;;11.67;86.78
12973;BME280;6551;51.056;9.466;2022-10-23T02:02:12;97665.94;;;11.61;87.06
12973;BME280;6551;51.056;9.466;2022-10-23T02:04:48;97668.31;;;11.69;87.82
12973;BME280;6551;51.056;9.466;2022-10-23T02:07:15;97680.31;;;11.79;89.03
12973;BME280;6551;51.056;9.466;2022-10-23T02:09:41;97671.63;;;11.83;89.17
12973;BME280;6551;51.056;9.466;2022-10-23T02:15:11;97671.50;;;11.78;88.14
12973;BME280;6551;51.056;9.466;2022-10-23T02:21:15;97670.63;;;11.66;87.27
12973;BME280;6551;51.056;9.466;2022-10-23T02:24:06;97662.78;;;11.53;87.10
12973;BME280;6551;51.056;9.466;2022-10-23T02:26:41;97648.28;;;11.49;87.22
12973;BME280;6551;51.056;9.466;2022-10-23T02:29:32;97643.69;;;11.38;87.23
12973;BME280;6551;51.056;9.466;2022-10-23T02:32:00;97648.06;;;11.32;87.21
12973;BME280;6551;51.056;9.466;2022-10-23T02:34:27;97639.94;;;11.27;87.35
12973;BME280;6551;51.056;9.466;2022-10-23T02:36:52;97632.53;;;11.29;87.34
12973;BME280;6551;51.056;9.466;2022-10-23T02:39:21;97642.88;;;11.37;87.16
12973;BME280;6551;51.056;9.466;2022-10-23T02:44:54;97649.31;;;11.11;87.91
12973;BME280;6551;51.056;9.466;2022-10-23T02:47:36;97641.44;;;11.05;88.04
12973;BME280;6551;51.056;9.466;2022-10-23T02:59:05;97628.09;;;11.05;89.93
12973;BME280;6551;51.056;9.466;2022-10-23T03:01:49;97620.91;;;11.05;90.49
12973;BME280;6551;51.056;9.466;2022-10-23T03:04:18;97614.69;;;11.11;90.65
12973;BME280;6551;51.056;9.466;2022-10-23T03:06:45;97612.91;;;11.24;91.07
12973;BME280;6551;51.056;9.466;2022-10-23T03:09:12;97620.16;;;11.35;91.68
12973;BME280;6551;51.056;9.466;2022-10-23T03:11:37;97614.72;;;11.41;91.82
12973;BME280;6551;51.056;9.466;2022-10-23T03:14:03;97624.09;;;11.62;91.17
12973;BME280;6551;51.056;9.466;2022-10-23T03:16:28;97609.66;;;11.69;90.24
12973;BME280;6551;51.056;9.466;2022-10-23T03:18:55;97614.16;;;11.69;89.75
12973;BME280;6551;51.056;9.466;2022-10-23T03:21:21;97607.63;;;11.65;89.44
12973;BME280;6551;51.056;9.466;2022-10-23T03:23:46;97604.22;;;11.58;89.01
12973;BME280;6551;51.056;9.466;2022-10-23T03:26:12;97611.75;;;11.49;88.83
12973;BME280;6551;51.056;9.466;2022-10-23T03:28:38;97611.41;;;11.46;88.09
12973;BME280;6551;51.056;9.466;2022-10-23T03:31:04;97599.34;;;11.43;87.89
12973;BME280;6551;51.056;9.466;2022-10-23T03:33:31;97609.25;;;11.36;87.53
12973;BME280;6551;51.056;9.466;2022-10-23T03:35:57;97596.69;;;11.25;87.83
12973;BME280;6551;51.056;9.466;2022-10-23T03:38:23;97600.53;;;11.11;88.35
12973;BME280;6551;51.056;9.466;2022-10-23T03:40:48;97596.56;;;11.02;88.49
12973;BME280;6551;51.056;9.466;2022-10-23T03:43:14;97599.31;;;10.95;88.17
12973;BME280;6551;51.056;9.466;2022-10-23T03:45:40;97597.53;;;10.89;88.43
12973;BME280;6551;51.056;9.466;2022-10-23T03:48:06;97599.00;;;10.85;88.96
12973;BME280;6551;51.056;9.466;2022-10-23T03:50:33;97597.09;;;10.92;89.33
12973;BME280;6551;51.056;9.466;2022-10-23T03:52:59;97591.69;;;10.99;89.64
12973;BME280;6551;51.056;9.466;2022-10-23T03:55:25;97592.84;;;11.03;89.58
12973;BME280;6551;51.056;9.466;2022-10-23T03:57:53;97584.78;;;11.09;89.21
12973;BME280;6551;51.056;9.466;2022-10-23T04:00:19;97576.94;;;11.14;89.39
12973;BME280;6551;51.056;9.466;2022-10-23T04:02:45;97574.19;;;11.21;89.02
12973;BME280;6551;51.056;9.466;2022-10-23T04:05:11;97571.34;;;11.34;89.00
12973;BME280;6551;51.056;9.466;2022-10-23T04:07:37;97572.44;;;11.45;89.33
12973;BME280;6551;51.056;9.466;2022-10-23T04:10:04;97581.38;;;11.50;89.90
12973;BME280;6551;51.056;9.466;2022-10-23T04:12:29;97580.16;;;11.64;89.86
12973;BME280;6551;51.056;9.466;2022-10-23T04:14:55;97585.28;;;11.66;89.69
12973;BME280;6551;51.056;9.466;2022-10-23T04:17:21;97583.06;;;11.63;89.95
12973;BME280;6551;51.056;9.466;2022-10-23T04:19:46;97581.53;;;11.67;90.85
12973;BME280;6551;51.056;9.466;2022-10-23T04:22:12;97578.13;;;11.78;91.30
12973;BME280;6551;51.056;9.466;2022-10-23T04:24:38;97581.38;;;11.80;90.82
12973;BME280;6551;51.056;9.466;2022-10-23T04:27:08;97583.25;;;11.80;90.42
12973;BME280;6551;51.056;9.466;2022-10-23T04:29:33;97573.84;;;11.77;89.34
12973;BME280;6551;51.056;9.466;2022-10-23T04:31:59;97575.91;;;11.75;88.81
12973;BME280;6551;51.056;9.466;2022-10-23T04:34:25;97575.09;;;11.74;88.15
12973;BME280;6551;51.056;9.466;2022-10-23T04:36:50;97572.91;;;11.71;87.99
12973;BME280;6551;51.056;9.466;2022-10-23T04:39:16;97573.41;;;11.62;88.44
12973;BME280;6551;51.056;9.466;2022-10-23T04:41:42;97566.44;;;11.61;88.29
12973;BME280;6551;51.056;9.466;2022-10-23T04:44:07;97569.81;;;11.56;88.14
12973;BME280;6551;51.056;9.466;2022-10-23T04:46:33;97567.84;;;11.52;88.31
12973;BME280;6551;51.056;9.466;2022-10-23T04:48:59;97566.44;;;11.49;88.93
12973;BME280;6551;51.056;9.466;2022-10-23T04:51:26;97567.22;;;11.50;89.06
12973;BME280;6551;51.056;9.466;2022-10-23T04:53:52;97568.03;;;11.50;89.33
12973;BME280;6551;51.056;9.466;2022-10-23T04:56:17;97575.00;;;11.51;89.39
12973;BME280;6551;51.056;9.466;2022-10-23T04:58:43;97580.47;;;11.56;89.50
12973;BME280;6551;51.056;9.466;2022-10-23T05:01:09;97572.84;;;11.60;89.36
12973;BME280;6551;51.056;9.466;2022-10-23T05:03:36;97572.84;;;11.60;89.52
12973;BME280;6551;51.056;9.466;2022-10-23T05:06:04;97570.19;;;11.60;89.20
12973;BME280;6551;51.056;9.466;2022-10-23T05:08:30;97560.50;;;11.47;89.32
12973;BME280;6551;51.056;9.466;2022-10-23T05:10:56;97558.16;;;11.39;89.59
12973;BME280;6551;51.056;9.466;2022-10-23T05:13:21;97556.66;;;11.43;89.57
12973;BME280;6551;51.056;9.466;2022-10-23T05:15:50;97545.41;;;11.41;89.82
12973;BME280;6551;51.056;9.466;2022-10-23T05:18:39;97551.47;;;11.48;89.38
12973;BME280;6551;51.056;9.466;2022-10-23T05:21:16;97552.94;;;11.44;89.52
12973;BME280;6551;51.056;9.466;2022-10-23T05:23:46;97551.91;;;11.45;88.58
12973;BME280;6551;51.056;9.466;2022-10-23T05:26:12;97548.09;;;11.53;88.57
12973;BME280;6551;51.056;9.466;2022-10-23T05:28:38;97558.88;;;11.46;88.64
12973;BME280;6551;51.056;9.466;2022-10-23T05:31:04;97553.19;;;11.43;88.76
12973;BME280;6551;51.056;9.466;2022-10-23T05:33:32;97557.25;;;11.45;89.15
12973;BME280;6551;51.056;9.466;2022-10-23T05:35:59;97557.50;;;11.44;89.19
12973;BME280;6551;51.056;9.466;2022-10-23T05:38:27;97554.22;;;11.42;90.50
12973;BME280;6551;51.056;9.466;2022-10-23T05:40:54;97561.44;;;11.53;90.48
12973;BME280;6551;51.056;9.466;2022-10-23T05:43:19;97545.22;;;11.54;90.56
12973;BME280;6551;51.056;9.466;2022-10-23T05:45:45;97545.81;;;11.56;90.82
12973;BME280;6551;51.056;9.466;2022-10-23T05:48:14;97545.72;;;11.63;91.63
12973;BME280;6551;51.056;9.466;2022-10-23T05:50:40;97545.56;;;11.58;91.47
12973;BME280;6551;51.056;9.466;2022-10-23T05:53:06;97546.38;;;11.58;91.28
12973;BME280;6551;51.056;9.466;2022-10-23T05:55:32;97551.97;;;11.57;91.41
12973;BME280;6551;51.056;9.466;2022-10-23T05:58:00;97551.84;;;11.63;91.43
12973;BME280;6551;51.056;9.466;2022-10-23T06:00:26;97546.88;;;11.67;91.19
12973;BME280;6551;51.056;9.466;2022-10-23T06:02:51;97543.19;;;11.68;91.04
12973;BME280;6551;51.056;9.466;2022-10-23T06:05:17;97532.66;;;11.73;91.47
12973;BME280;6551;51.056;9.466;2022-10-23T06:07:43;97533.50;;;11.85;91.69
12973;BME280;6551;51.056;9.466;2022-10-23T06:10:08;97542.09;;;11.87;91.41
12973;BME280;6551;51.056;9.466;2022-10-23T06:12:34;97546.16;;;12.01;90.83
12973;BME280;6551;51.056;9.466;2022-10-23T06:15:00;97539.66;;;11.97;90.12
12973;BME280;6551;51.056;9.466;2022-10-23T06:17:27;97544.66;;;11.94;90.19
12973;BME280;6551;51.056;9.466;2022-10-23T06:19:53;97541.19;;;11.93;90.29
12973;BME280;6551;51.056;9.466;2022-10-23T06:22:26;97545.56;;;11.88;90.35
12973;BME280;6551;51.056;9.466;2022-10-23T06:24:52;97545.69;;;11.93;90.56
12973;BME280;6551;51.056;9.466;2022-10-23T06:27:18;97532.13;;;12.06;89.86
12973;BME280;6551;51.056;9.466;2022-10-23T06:29:44;97526.56;;;12.07;89.48
12973;BME280;6551;51.056;9.466;2022-10-23T06:32:09;97527.50;;;12.13;89.49
12973;BME280;6551;51.056;9.466;2022-10-23T06:34:35;97527.63;;;12.18;89.72
12973;BME280;6551;51.056;9.466;2022-10-23T06:37:01;97535.50;;;12.36;90.11
12973;BME280;6551;51.056;9.466;2022-10-23T06:39:26;97531.19;;;12.47;89.71
12973;BME280;6551;51.056;9.466;2022-10-23T06:41:52;97525.16;;;12.63;90.51
12973;BME280;6551;51.056;9.466;2022-10-23T06:44:18;97525.09;;;12.74;91.33
12973;BME280;6551;51.056;9.466;2022-10-23T06:46:44;97535.84;;;13.03;92.58
12973;BME280;6551;51.056;9.466;2022-10-23T06:49:15;97537.19;;;13.28;91.87
12973;BME280;6551;51.056;9.466;2022-10-23T06:51:41;97537.88;;;13.35;89.45
12973;BME280;6551;51.056;9.466;2022-10-23T06:54:09;97540.03;;;13.38;86.72
12973;BME280;6551;51.056;9.466;2022-10-23T06:56:35;97539.19;;;13.49;86.47
12973;BME280;6551;51.056;9.466;2022-10-23T06:59:01;97527.09;;;13.47;84.53
12973;BME280;6551;51.056;9.466;2022-10-23T07:01:27;97534.53;;;13.73;86.68
12973;BME280;6551;51.056;9.466;2022-10-23T07:03:52;97535.09;;;13.92;86.12
12973;BME280;6551;51.056;9.466;2022-10-23T07:06:18;97534.13;;;14.15;85.69
12973;BME280;6551;51.056;9.466;2022-10-23T07:08:44;97534.94;;;14.48;84.92
12973;BME280;6551;51.056;9.466;2022-10-23T07:11:10;97534.81;;;14.77;84.43
12973;BME280;6551;51.056;9.466;2022-10-23T07:13:38;97534.25;;;14.96;80.38
12973;BME280;6551;51.056;9.466;2022-10-23T07:16:19;97528.97;;;15.28;79.94
12973;BME280;6551;51.056;9.466;2022-10-23T07:18:46;97537.69;;;15.62;81.50
12973;BME280;6551;51.056;9.466;2022-10-23T07:21:12;97533.84;;;16.16;79.48
12973;BME280;6551;51.056;9.466;2022-10-23T07:23:39;97528.34;;;16.75;79.42
12973;BME280;6551;51.056;9.466;2022-10-23T07:26:11;97519.75;;;17.50;77.04
12973;BME280;6551;51.056;9.466;2022-10-23T07:28:39;97522.22;;;18.47;73.79
12973;BME280;6551;51.056;9.466;2022-10-23T07:31:06;97517.63;;;19.42;68.88
12973;BME280;6551;51.056;9.466;2022-10-23T07:33:32;97508.56;;;20.39;64.37
12973;BME280;6551;51.056;9.466;2022-10-23T07:35:59;97508.94;;;21.04;62.00
12973;BME280;6551;51.056;9.466;2022-10-23T07:38:25;97510.72;;;21.37;60.73
12973;BME280;6551;51.056;9.466;2022-10-23T07:40:52;97512.84;;;21.96;58.92
12973;BME280;6551;51.056;9.466;2022-10-23T07:43:18;97505.28;;;22.58;57.36
12973;BME280;6551;51.056;9.466;2022-10-23T07:45:48;97508.44;;;23.33;55.76
12973;BME280;6551;51.056;9.466;2022-10-23T07:48:15;97511.59;;;24.12;53.59
12973;BME280;6551;51.056;9.466;2022-10-23T07:50:41;97498.50;;;24.75;51.81
12973;BME280;6551;51.056;9.466;2022-10-23T07:53:20;97497.13;;;25.34;50.21
12973;BME280;6551;51.056;9.466;2022-10-23T07:56:00;97494.72;;;25.41;49.94
12973;BME280;6551;51.056;9.466;2022-10-23T07:58:27;97501.09;;;25.20;49.93
12973;BME280;6551;51.056;9.466;2022-10-23T08:00:59;97496.47;;;25.29;50.44
12973;BME280;6551;51.056;9.466;2022-10-23T08:03:28;97492.78;;;25.33;50.02
12973;BME280;6551;51.056;9.466;2022-10-23T08:05:54;97489.81;;;25.78;50.04
12973;BME280;6551;51.056;9.466;2022-10-23T08:08:22;97490.28;;;25.97;48.20
12973;BME280;6551;51.056;9.466;2022-10-23T08:10:51;97492.53;;;26.29;48.16
12973;BME280;6551;51.056;9.466;2022-10-23T08:13:18;97495.56;;;26.36;48.09
12973;BME280;6551;51.056;9.466;2022-10-23T08:15:46;97483.63;;;26.49;47.83
12973;BME280;6551;51.056;9.466;2022-10-23T08:18:12;97481.63;;;26.29;47.67
12973;BME280;6551;51.056;9.466;2022-10-23T08:20:43;97476.63;;;25.97;48.79
12973;BME280;6551;51.056;9.466;2022-10-23T08:23:10;97477.91;;;25.91;49.03
12973;BME280;6551;51.056;9.466;2022-10-23T08:25:38;97480.81;;;25.77;48.02
12973;BME280;6551;51.056;9.466;2022-10-23T08:28:06;97489.25;;;25.41;49.51
12973;BME280;6551;51.056;9.466;2022-10-23T08:30:32;97495.22;;;24.87;50.83
12973;BME280;6551;51.056;9.466;2022-10-23T08:32:58;97485.78;;;24.93;51.02
12973;BME280;6551;51.056;9.466;2022-10-23T08:35:23;97478.94;;;25.21;50.82
12973;BME280;6551;51.056;9.466;2022-10-23T08:37:49;97472.41;;;25.31;49.96
12973;BME280;6551;51.056;9.466;2022-10-23T08:40:17;97471.19;;;25.54;49.77
12973;BME280;6551;51.056;9.466;2022-10-23T08:43:01;97477.59;;;25.67;48.55
12973;BME280;6551;51.056;9.466;2022-10-23T08:45:43;97478.25;;;25.64;49.07
12973;BME280;6551;51.056;9.466;2022-10-23T08:48:52;97465.59;;;24.94;50.91
12973;BME280;6551;51.056;9.466;2022-10-23T08:51:41;97462.34;;;24.83;51.17
12973;BME280;6551;51.056;9.466;2022-10-23T08:57:23;97474.38;;;24.91;50.98
12973;BME280;6551;51.056;9.466;2022-10-23T09:00:05;97469.47;;;25.10;50.95
12973;BME280;6551;51.056;9.466;2022-10-23T09:02:50;97461.19;;;25.32;50.25
12973;BME280;6551;51.056;9.466;2022-10-23T09:19:45;97459.31;;;29.29;43.82
12973;BME280;6551;51.056;9.466;2022-10-23T09:22:11;97462.03;;;29.53;43.16
12973;BME280;6551;51.056;9.466;2022-10-23T09:24:42;97458.41;;;29.77;42.27
12973;BME280;6551;51.056;9.466;2022-10-23T09:27:15;97459.53;;;30.15;42.11
12973;BME280;6551;51.056;9.466;2022-10-23T09:29:52;97459.09;;;30.41;41.57
12973;BME280;6551;51.056;9.466;2022-10-23T09:32:19;97456.28;;;30.85;41.24
12973;BME280;6551;51.056;9.466;2022-10-23T09:34:53;97449.63;;;30.86;40.67
12973;BME280;6551;51.056;9.466;2022-10-23T09:37:27;97449.59;;;30.39;41.69
12973;BME280;6551;51.056;9.466;2022-10-23T09:42:36;97436.28;;;28.61;42.09
12973;BME280;6551;51.056;9.466;2022-10-23T09:45:02;97430.47;;;27.84;44.71
12973;BME280;6551;51.056;9.466;2022-10-23T09:47:28;97428.88;;;27.42;44.00
12973;BME280;6551;51.056;9.466;2022-10-23T09:49:55;97429.25;;;26.82;45.87
12973;BME280;6551;51.056;9.466;2022-10-23T09:52:35;97430.06;;;26.02;47.38
12973;BME280;6551;51.056;9.466;2022-10-23T09:55:20;97420.16;;;25.89;48.00
12973;BME280;6551;51.056;9.466;2022-10-23T09:57:48;97424.97;;;25.75;49.71
12973;BME280;6551;51.056;9.466;2022-10-23T10:00:23;97435.41;;;25.90;48.88
12973;BME280;6551;51.056;9.466;2022-10-23T10:02:59;97428.00;;;25.30;48.54
12973;BME280;6551;51.056;9.466;2022-10-23T10:05:34;97420.91;;;24.64;50.07
12973;BME280;6551;51.056;9.466;2022-10-23T10:10:44;97428.25;;;23.80;52.83
12973;BME280;6551;51.056;9.466;2022-10-23T10:13:43;97435.66;;;23.30;53.81
12973;BME280;6551;51.056;9.466;2022-10-23T10:16:32;97426.66;;;22.94;54.03
12973;BME280;6551;51.056;9.466;2022-10-23T10:19:16;97417.84;;;22.75;54.19
12973;BME280;6551;51.056;9.466;2022-10-23T10:24:31;97423.06;;;22.98;55.83
12973;BME280;6551;51.056;9.466;2022-10-23T10:30:22;97413.81;;;22.86;55.16
12973;BME280;6551;51.056;9.466;2022-10-23T10:35:55;97423.72;;;22.36;55.71
12973;BME280;6551;51.056;9.466;2022-10-23T10:38:57;97422.38;;;22.06;56.52
12973;BME280;6551;51.056;9.466;2022-10-23T10:50:51;97405.81;;;21.00;59.77
12973;BME280;6551;51.056;9.466;2022-10-23T10:53:58;97404.41;;;20.84;60.66
12973;BME280;6551;51.056;9.466;2022-10-23T10:56:32;97397.59;;;20.68;60.50
12973;BME280;6551;51.056;9.466;2022-10-23T10:59:15;97386.59;;;20.60;61.07
12973;BME280;6551;51.056;9.466;2022-10-23T11:04:38;97380.56;;;20.86;60.21
12973;BME280;6551;51.056;9.466;2022-10-23T11:07:10;97379.66;;;20.72;60.84
12973;BME280;6551;51.056;9.466;2022-10-23T11:09:38;97370.69;;;20.77;60.48
12973;BME280;6551;51.056;9.466;2022-10-23T11:12:04;97379.47;;;20.87;61.56
12973;BME280;6551;51.056;9.466;2022-10-23T11:14:33;97368.34;;;20.89;61.25
12973;BME280;6551;51.056;9.466;2022-10-23T11:17:14;97366.47;;;20.89;60.37
12973;BME280;6551;51.056;9.466;2022-10-23T11:19:48;97358.84;;;20.91;59.97
12973;BME280;6551;51.056;9.466;2022-10-23T11:22:26;97355.53;;;21.18;60.64
12973;BME280;6551;51.056;9.466;2022-10-23T11:36:55;97332.44;;;20.83;61.05
12973;BME280;6551;51.056;9.466;2022-10-23T11:39:27;97343.63;;;20.95;61.57
12973;BME280;6551;51.056;9.466;2022-10-23T11:42:12;97337.25;;;21.05;61.24
12973;BME280;6551;51.056;9.466;2022-10-23T11:44:47;97336.63;;;21.13;61.30
12973;BME280;6551;51.056;9.466;2022-10-23T11:47:38;97333.00;;;21.36;60.98
12973;BME280;6551;51.056;9.466;2022-10-23T11:52:51;97325.06;;;21.26;61.48
12973;BME280;6551;51.056;9.466;2022-10-23T11:55:22;97316.00;;;21.49;61.04
12973;BME280;6551;51.056;9.466;2022-10-23T11:58:09;97318.28;;;21.42;60.21
12973;BME280;6551;51.056;9.466;2022-10-23T12:00:48;97314.69;;;21.47;60.36
12973;BME280;6551;51.056;9.466;2022-10-23T12:03:26;97320.09;;;21.47;60.19
12973;BME280;6551;51.056;9.466;2022-10-23T12:06:00;97307.66;;;21.46;60.20
12973;BME280;6551;51.056;9.466;2022-10-23T12:08:31;97307.06;;;21.49;61.30
12973;BME280;6551;51.056;9.466;2022-10-23T12:16:03;97311.94;;;21.33;62.58
12973;BME280;6551;51.056;9.466;2022-10-23T12:18:29;97306.19;;;21.21;61.07
12973;BME280;6551;51.056;9.466;2022-10-23T12:21:02;97304.75;;;21.05;60.10
12973;BME280;6551;51.056;9.466;2022-10-23T12:23:48;97295.91;;;20.99;60.39
12973;BME280;6551;51.056;9.466;2022-10-23T12:36:00;97277.16;;;20.71;61.48
12973;BME280;6551;51.056;9.466;2022-10-23T12:38:21;97271.50;;;20.86;60.89
12973;BME280;6551;51.056;9.466;2022-10-23T12:41:14;97274.19;;;20.86;60.65
12973;BME280;6551;51.056;9.466;2022-10-23T12:43:43;97277.22;;;20.84;60.63
12973;BME280;6551;51.056;9.466;2022-10-23T12:46:39;97277.13;;;20.89;62.09
12973;BME280;6551;51.056;9.466;2022-10-23T12:49:21;97256.50;;;20.93;60.89
12973;BME280;6551;51.056;9.466;2022-10-23T12:52:15;97241.44;;;20.87;62.21
12973;BME280;6551;51.056;9.466;2022-10-23T12:54:42;97240.78;;;20.95;62.04
12973;BME280;6551;51.056;9.466;2022-10-23T12:57:28;97234.50;;;20.81;62.22
12973;BME280;6551;51.056;9.466;2022-10-23T12:59:59;97229.44;;;20.93;63.37
12973;BME280;6551;51.056;9.466;2022-10-23T13:02:31;97226.50;;;20.90;63.08
12973;BME280;6551;51.056;9.466;2022-10-23T13:05:02;97227.06;;;21.06;62.64
12973;BME280;6551;51.056;9.466;2022-10-23T13:07:34;97222.03;;;21.18;62.71
12973;BME280;6551;51.056;9.466;2022-10-23T13:10:02;97226.47;;;21.41;62.39
12973;BME280;6551;51.056;9.466;2022-10-23T13:12:32;97219.97;;;21.55;62.32
12973;BME280;6551;51.056;9.466;2022-10-23T13:25:34;97238.88;;;22.29;59.21
12973;BME280;6551;51.056;9.466;2022-10-23T13:28:21;97231.69;;;22.46;59.00
12973;BME280;6551;51.056;9.466;2022-10-23T13:31:04;97225.63;;;22.49;56.88
12973;BME280;6551;51.056;9.466;2022-10-23T13:33:44;97219.19;;;22.59;57.67
12973;BME280;6551;51.056;9.466;2022-10-23T13:38:44;97208.25;;;22.50;58.40
12973;BME280;6551;51.056;9.466;2022-10-23T13:41:17;97209.63;;;22.61;58.01
12973;BME280;6551;51.056;9.466;2022-10-23T13:43:46;97197.88;;;22.66;57.91
12973;BME280;6551;51.056;9.466;2022-10-23T13:48:39;97194.88;;;22.54;57.09
12973;BME280;6551;51.056;9.466;2022-10-23T13:51:14;97187.69;;;22.36;58.58
12973;BME280;6551;51.056;9.466;2022-10-23T13:53:40;97186.84;;;22.13;58.24
12973;BME280;6551;51.056;9.466;2022-10-23T13:56:08;97192.25;;;22.27;58.48
12973;BME280;6551;51.056;9.466;2022-10-23T13:58:34;97181.78;;;22.34;58.68
12973;BME280;6551;51.056;9.466;2022-10-23T14:00:59;97166.19;;;22.39;58.62
12973;BME280;6551;51.056;9.466;2022-10-23T14:03:25;97157.28;;;22.25;57.06
12973;BME280;6551;51.056;9.466;2022-10-23T14:05:51;97150.19;;;22.16;56.77
12973;BME280;6551;51.056;9.466;2022-10-23T14:08:17;97156.34;;;22.30;56.81
12973;BME280;6551;51.056;9.466;2022-10-23T14:10:44;97148.72;;;22.32;57.01
12973;BME280;6551;51.056;9.466;2022-10-23T14:13:10;97144.28;;;22.36;56.77
12973;BME280;6551;51.056;9.466;2022-10-23T14:15:36;97140.84;;;22.44;56.52
12973;BME280;6551;51.056;9.466;2022-10-23T14:18:02;97142.13;;;22.46;56.37
12973;BME280;6551;51.056;9.466;2022-10-23T14:20:28;97139.25;;;22.43;56.11
12973;BME280;6551;51.056;9.466;2022-10-23T14:22:53;97139.38;;;22.38;56.03
12973;BME280;6551;51.056;9.466;2022-10-23T14:25:21;97139.19;;;22.34;56.10
12973;BME280;6551;51.056;9.466;2022-10-23T14:27:47;97147.53;;;22.24;56.20
12973;BME280;6551;51.056;9.466;2022-10-23T14:30:13;97150.44;;;21.92;57.03
12973;BME280;6551;51.056;9.466;2022-10-23T14:32:39;97152.16;;;21.88;57.89
12973;BME280;6551;51.056;9.466;2022-10-23T14:35:06;97143.81;;;21.71;57.96
12973;BME280;6551;51.056;9.466;2022-10-23T14:37:33;97143.38;;;21.64;57.21
12973;BME280;6551;51.056;9.466;2022-10-23T14:39:59;97136.78;;;21.56;57.95
12973;BME280;6551;51.056;9.466;2022-10-23T14:42:25;97133.97;;;21.34;57.85
12973;BME280;6551;51.056;9.466;2022-10-23T14:44:51;97124.81;;;21.30;58.59
12973;BME280;6551;51.056;9.466;2022-10-23T14:47:18;97125.41;;;21.13;58.59
12973;BME280;6551;51.056;9.466;2022-10-23T14:49:47;97119.16;;;20.99;59.66
12973;BME280;6551;51.056;9.466;2022-10-23T14:52:16;97119.34;;;20.57;60.47
12973;BME280;6551;51.056;9.466;2022-10-23T14:54:42;97123.53;;;20.49;60.68
12973;BME280;6551;51.056;9.466;2022-10-23T14:57:08;97120.72;;;20.40;61.42
12973;BME280;6551;51.056;9.466;2022-10-23T14:59:34;97122.53;;;20.45;61.33
12973;BME280;6551;51.056;9.466;2022-10-23T15:01:59;97126.03;;;20.46;61.01
12973;BME280;6551;51.056;9.466;2022-10-23T15:04:25;97126.41;;;20.39;61.12
12973;BME280;6551;51.056;9.466;2022-10-23T15:06:51;97129.00;;;20.44;61.77
12973;BME280;6551;51.056;9.466;2022-10-23T15:09:17;97126.16;;;20.17;61.59
12973;BME280;6551;51.056;9.466;2022-10-23T15:11:45;97116.97;;;20.36;61.78
12973;BME280;6551;51.056;9.466;2022-10-23T15:14:11;97106.28;;;20.45;61.69
12973;BME280;6551;51.056;9.466;2022-10-23T15:16:37;97103.81;;;20.49;61.00
12973;BME280;6551;51.056;9.466;2022-10-23T15:19:11;97096.31;;;20.59;60.83
12973;BME280;6551;51.056;9.466;2022-10-23T15:21:37;97084.44;;;20.41;60.65
12973;BME280;6551;51.056;9.466;2022-10-23T15:24:04;97081.84;;;20.50;61.01